createdAt,value
2022-11-25T00:01:54.977Z,101.70
2022-11-25T00:04:37.118Z,95.70
2022-11-25T00:07:09.920Z,98.00
2022-11-25T00:09:42.478Z,111.20
2022-11-25T00:12:18.940Z,104.10
2022-11-25T00:14:51.979Z,93.30
2022-11-25T00:17:25.367Z,121.50
2022-11-25T00:20:01.811Z,99.80
2022-11-25T00:22:34.590Z,96.70
2022-11-25T00:25:07.488Z,124.50
2022-11-25T00:27:41.379Z,89.60
2022-11-25T00:30:15.428Z,91.40
2022-11-25T00:32:48.303Z,96.90
2022-11-25T00:35:21.441Z,101.40
2022-11-25T00:37:53.224Z,69.50
2022-11-25T00:40:24.991Z,83.90
2022-11-25T00:43:14.326Z,100.00
2022-11-25T00:45:46.288Z,98.00
2022-11-25T00:48:18.183Z,111.30
2022-11-25T00:50:50.828Z,109.90
2022-11-25T00:53:23.336Z,96.00
2022-11-25T00:56:12.837Z,115.20
2022-11-25T00:58:45.656Z,102.10
2022-11-25T01:01:20.507Z,88.00
2022-11-25T01:03:55.119Z,84.00
2022-11-25T01:06:31.377Z,113.60
2022-11-25T01:09:06.108Z,111.70
2022-11-25T01:11:39.546Z,93.00
2022-11-25T01:14:11.541Z,97.40
2022-11-25T01:16:43.469Z,81.20
2022-11-25T01:19:15.751Z,87.10
2022-11-25T01:21:47.974Z,106.30
2022-11-25T01:24:20.531Z,85.50
2022-11-25T01:26:52.248Z,98.40
2022-11-25T01:29:24.269Z,95.10
2022-11-25T01:31:57.398Z,79.00
2022-11-25T01:34:32.155Z,85.00
2022-11-25T01:37:03.974Z,104.90
2022-11-25T01:39:35.795Z,80.80
2022-11-25T01:42:07.601Z,97.40
2022-11-25T01:44:42.658Z,94.60
2022-11-25T01:47:19.763Z,95.80
2022-11-25T01:49:54.780Z,109.20
2022-11-25T01:52:29.992Z,91.10
2022-11-25T01:55:05.357Z,113.90
2022-11-25T01:57:39.132Z,87.20
2022-11-25T02:00:13.149Z,105.10
2022-11-25T02:05:21.279Z,66.00
2022-11-25T02:07:54.449Z,71.50
2022-11-25T02:13:02.160Z,106.30
2022-11-25T02:15:36.250Z,82.80
2022-11-25T02:18:08.554Z,82.20
2022-11-25T02:20:41.678Z,98.60
2022-11-25T02:23:25.740Z,79.30
2022-11-25T02:25:57.676Z,98.30
2022-11-25T02:28:31.689Z,105.80
2022-11-25T02:31:03.604Z,97.00
2022-11-25T02:33:35.552Z,92.70
2022-11-25T02:36:09.577Z,97.10
2022-11-25T02:41:14.861Z,91.70
2022-11-25T02:43:46.677Z,105.50
2022-11-25T02:46:22.558Z,101.70
2022-11-25T02:49:11.577Z,111.30
2022-11-25T02:51:45.959Z,103.70
2022-11-25T02:54:18.288Z,114.90
2022-11-25T02:56:50.227Z,113.70
2022-11-25T02:59:21.940Z,105.00
2022-11-25T03:01:54.232Z,97.20
2022-11-25T03:04:26.040Z,100.00
2022-11-25T03:06:58.006Z,123.10
2022-11-25T03:09:31.069Z,68.00
2022-11-25T03:12:23.289Z,112.60
2022-11-25T03:14:55.072Z,108.90
2022-11-25T03:17:27.121Z,103.10
2022-11-25T03:19:59.156Z,109.20
2022-11-25T03:22:31.282Z,104.60
2022-11-25T03:25:03.015Z,102.70
2022-11-25T03:27:36.048Z,124.30
2022-11-25T03:30:16.524Z,106.10
2022-11-25T03:32:48.663Z,110.00
2022-11-25T03:35:20.607Z,107.00
2022-11-25T03:37:53.122Z,106.10
2022-11-25T03:40:25.145Z,105.60
2022-11-25T03:42:57.312Z,95.30
2022-11-25T03:45:29.931Z,106.20
2022-11-25T03:48:01.922Z,97.00
2022-11-25T03:50:33.616Z,105.80
2022-11-25T03:53:05.733Z,104.10
2022-11-25T03:55:37.403Z,116.20
2022-11-25T03:58:10.025Z,134.30
2022-11-25T04:00:42.107Z,110.60
2022-11-25T04:03:15.168Z,126.90
2022-11-25T04:05:46.867Z,129.80
2022-11-25T04:08:19.057Z,93.30
2022-11-25T04:10:51.663Z,111.10
2022-11-25T04:13:23.622Z,116.60
2022-11-25T04:15:55.355Z,114.70
2022-11-25T04:18:27.674Z,115.40
2022-11-25T04:20:59.355Z,115.90
2022-11-25T04:23:31.291Z,130.00
2022-11-25T04:26:02.968Z,106.90
2022-11-25T04:28:35.260Z,118.60
2022-11-25T04:31:10.020Z,138.60
2022-11-25T04:33:42.328Z,135.40
2022-11-25T04:36:13.966Z,120.00
2022-11-25T04:38:45.937Z,126.80
2022-11-25T04:41:17.593Z,114.80
2022-11-25T04:43:49.773Z,126.10
2022-11-25T04:46:24.719Z,110.30
2022-11-25T04:48:56.730Z,107.30
2022-11-25T04:51:28.656Z,120.50
2022-11-25T04:54:01.881Z,122.00
2022-11-25T04:56:33.835Z,112.70
2022-11-25T04:59:23.527Z,116.90
2022-11-25T05:01:55.324Z,118.10
2022-11-25T05:04:27.279Z,139.20
2022-11-25T05:06:59.002Z,121.90
2022-11-25T05:09:31.148Z,112.80
2022-11-25T05:12:02.869Z,138.20
2022-11-25T05:14:36.139Z,117.30
2022-11-25T05:17:09.016Z,92.40
2022-11-25T05:19:41.318Z,131.50
2022-11-25T05:22:14.568Z,117.50
2022-11-25T05:24:47.137Z,133.20
2022-11-25T05:27:19.529Z,138.90
2022-11-25T05:29:55.909Z,152.30
2022-11-25T05:32:28.062Z,116.90
2022-11-25T05:35:00.212Z,137.70
2022-11-25T05:37:31.960Z,140.70
2022-11-25T05:40:04.281Z,131.50
2022-11-25T05:42:35.909Z,129.60
2022-11-25T05:45:10.262Z,120.40
2022-11-25T05:47:41.951Z,113.70
2022-11-25T05:50:14.108Z,130.40
2022-11-25T05:52:45.821Z,131.70
2022-11-25T05:55:18.227Z,116.90
2022-11-25T05:57:49.945Z,129.70
2022-11-25T06:00:26.556Z,118.00
2022-11-25T06:02:59.099Z,101.60
2022-11-25T06:05:31.465Z,99.00
2022-11-25T06:08:03.418Z,92.20
2022-11-25T06:10:36.319Z,86.10
2022-11-25T06:13:08.007Z,90.00
2022-11-25T06:15:43.605Z,55.80
2022-11-25T06:18:17.770Z,73.30
2022-11-25T06:23:28.953Z,63.90
2022-11-25T06:26:07.677Z,62.00
2022-11-25T06:28:39.439Z,61.90
2022-11-25T06:31:12.919Z,73.00
2022-11-25T06:33:47.224Z,64.10
2022-11-25T06:36:20.627Z,72.80
2022-11-25T06:38:54.163Z,72.70
2022-11-25T06:41:26.088Z,46.10
2022-11-25T06:43:58.308Z,81.60
2022-11-25T06:46:30.064Z,75.20
2022-11-25T06:49:02.742Z,73.70
2022-11-25T06:51:34.672Z,80.20
2022-11-25T06:54:07.435Z,79.50
2022-11-25T06:56:39.685Z,71.80
2022-11-25T06:59:11.613Z,55.10
2022-11-25T07:01:43.974Z,66.00
2022-11-25T07:04:16.116Z,62.50
2022-11-25T07:06:49.918Z,73.50
2022-11-25T07:09:22.723Z,59.90
2022-11-25T07:11:55.293Z,73.00
2022-11-25T07:14:27.174Z,59.90
2022-11-25T07:16:59.106Z,74.30
2022-11-25T07:19:46.451Z,69.30
2022-11-25T07:22:25.918Z,75.60
2022-11-25T07:24:57.643Z,66.20
2022-11-25T07:27:29.663Z,41.70
2022-11-25T07:30:54.487Z,93.60
2022-11-25T07:32:54.189Z,83.50
2022-11-25T07:35:26.175Z,77.10
2022-11-25T07:37:58.485Z,77.60
2022-11-25T07:40:30.457Z,79.60
2022-11-25T07:43:02.612Z,89.30
2022-11-25T07:45:34.536Z,79.30
2022-11-25T07:48:06.811Z,82.90
2022-11-25T07:50:38.601Z,68.70
2022-11-25T07:53:10.512Z,76.20
2022-11-25T07:55:42.114Z,92.70
2022-11-25T07:58:13.987Z,86.00
2022-11-25T08:00:45.684Z,81.10
2022-11-25T08:03:17.747Z,80.70
2022-11-25T08:05:49.617Z,70.40
2022-11-25T08:08:21.534Z,81.80
2022-11-25T08:10:53.503Z,86.80
2022-11-25T08:13:25.867Z,80.40
2022-11-25T08:16:00.347Z,91.10
2022-11-25T08:18:32.783Z,97.70
2022-11-25T08:21:05.853Z,74.40
2022-11-25T08:23:39.280Z,85.30
2022-11-25T08:26:13.064Z,80.20
2022-11-25T08:28:44.940Z,91.90
2022-11-25T08:31:18.328Z,85.10
2022-11-25T08:33:53.015Z,87.60
2022-11-25T08:36:26.531Z,83.20
2022-11-25T08:39:12.621Z,83.50
2022-11-25T08:41:54.796Z,87.10
2022-11-25T08:44:28.925Z,80.60
2022-11-25T08:49:41.498Z,67.70
2022-11-25T08:52:14.307Z,73.80
2022-11-25T08:54:46.176Z,63.80
2022-11-25T08:57:19.571Z,67.10
2022-11-25T08:59:52.223Z,76.60
2022-11-25T09:02:24.402Z,73.70
2022-11-25T09:04:57.394Z,66.50
2022-11-25T09:07:31.003Z,81.90
2022-11-25T09:10:03.552Z,76.40
2022-11-25T09:12:36.030Z,72.90
2022-11-25T09:15:11.138Z,71.80
2022-11-25T09:17:42.941Z,74.10
2022-11-25T09:20:17.979Z,77.30
2022-11-25T09:22:50.581Z,85.30
2022-11-25T09:25:24.996Z,83.00
2022-11-25T09:28:00.607Z,102.40
2022-11-25T09:30:35.350Z,89.50
2022-11-25T09:33:07.273Z,80.20
2022-11-25T09:35:39.410Z,82.00
2022-11-25T09:38:13.981Z,84.10
2022-11-25T09:40:54.330Z,98.50
2022-11-25T09:43:54.447Z,97.80
2022-11-25T09:46:47.717Z,96.10
2022-11-25T09:49:39.190Z,80.60
2022-11-25T09:52:20.571Z,87.20
2022-11-25T09:54:58.552Z,88.20
2022-11-25T09:57:44.498Z,74.30
2022-11-25T10:00:19.729Z,81.80
2022-11-25T10:03:00.972Z,82.60
2022-11-25T10:05:38.892Z,88.40
2022-11-25T10:08:15.986Z,87.20
2022-11-25T10:10:51.186Z,98.00
2022-11-25T10:13:38.942Z,85.90
2022-11-25T10:16:19.606Z,81.70
2022-11-25T10:18:57.618Z,100.90
2022-11-25T10:21:33.490Z,87.30
2022-11-25T10:24:10.121Z,88.10
2022-11-25T10:26:45.628Z,90.20
2022-11-25T10:29:26.337Z,92.10
2022-11-25T10:32:13.284Z,99.20
2022-11-25T10:34:48.298Z,92.20
2022-11-25T10:37:27.026Z,85.10
2022-11-25T10:39:58.865Z,92.10
2022-11-25T10:42:32.712Z,100.00
2022-11-25T10:45:09.188Z,91.00
2022-11-25T10:47:52.050Z,85.00
2022-11-25T10:50:34.196Z,103.90
2022-11-25T10:53:14.963Z,109.90
2022-11-25T10:56:08.615Z,90.60
2022-11-25T10:58:42.514Z,115.80
2022-11-25T11:01:22.898Z,80.20
2022-11-25T11:03:57.914Z,107.50
2022-11-25T11:06:38.911Z,93.00
2022-11-25T11:09:34.708Z,81.30
2022-11-25T11:12:19.685Z,87.70
2022-11-25T11:14:52.025Z,89.10
2022-11-25T11:17:37.156Z,83.50
2022-11-25T11:20:26.456Z,83.70
2022-11-25T11:23:09.204Z,79.30
2022-11-25T11:25:43.452Z,90.90
2022-11-25T11:28:35.142Z,86.30
2022-11-25T11:31:09.429Z,83.70
2022-11-25T11:33:44.635Z,84.40
2022-11-25T11:36:49.996Z,94.50
2022-11-25T11:39:41.193Z,98.60
2022-11-25T11:42:20.784Z,90.60
2022-11-25T11:45:05.180Z,86.60
2022-11-25T11:50:26.807Z,86.60
2022-11-25T11:53:02.269Z,101.80
2022-11-25T11:56:05.553Z,104.60
2022-11-25T11:58:51.724Z,97.70
2022-11-25T12:01:41.856Z,92.20
2022-11-25T12:04:19.182Z,90.70
2022-11-25T12:07:09.985Z,95.50
2022-11-25T12:09:50.057Z,94.40
2022-11-25T12:12:22.353Z,106.60
2022-11-25T12:15:07.458Z,96.40
2022-11-25T12:17:45.740Z,98.50
2022-11-25T12:20:29.699Z,111.20
2022-11-25T12:25:38.763Z,85.90
2022-11-25T12:28:15.293Z,102.90
2022-11-25T12:31:00.491Z,85.00
2022-11-25T12:33:44.035Z,101.80
2022-11-25T12:36:19.635Z,91.60
2022-11-25T12:38:57.837Z,98.00
2022-11-25T12:41:38.744Z,107.80
2022-11-25T12:44:16.332Z,90.10
2022-11-25T12:49:54.540Z,113.20
2022-11-25T12:52:45.511Z,90.30
2022-11-25T12:55:26.655Z,107.00
2022-11-25T12:58:43.065Z,103.90
2022-11-25T13:01:55.046Z,111.70
2022-11-25T13:05:39.124Z,108.00
2022-11-25T13:08:41.160Z,106.20
2022-11-25T13:11:37.777Z,102.70
2022-11-25T13:14:30.686Z,106.50
2022-11-25T13:17:05.014Z,103.50
2022-11-25T13:19:38.346Z,100.80
2022-11-25T13:22:29.965Z,104.40
2022-11-25T13:25:05.516Z,106.70
2022-11-25T13:28:01.937Z,104.20
2022-11-25T13:30:44.093Z,99.00
2022-11-25T13:34:04.807Z,103.70
2022-11-25T13:36:51.767Z,104.80
2022-11-25T13:39:56.543Z,93.50
2022-11-25T13:42:34.005Z,98.40
2022-11-25T13:45:34.980Z,99.20
2022-11-25T13:48:16.884Z,101.90
2022-11-25T13:51:10.794Z,100.30
2022-11-25T13:53:54.201Z,112.00
2022-11-25T13:56:31.351Z,98.50
2022-11-25T13:59:52.810Z,93.50
2022-11-25T14:06:02.870Z,98.30
2022-11-25T14:08:43.658Z,96.80
2022-11-25T14:11:37.227Z,99.80
2022-11-25T14:14:37.594Z,107.60
2022-11-25T14:17:37.041Z,114.50
2022-11-25T14:20:21.585Z,106.50
2022-11-25T14:23:43.002Z,99.50
2022-11-25T14:26:47.716Z,122.10
2022-11-25T14:29:17.221Z,99.00
2022-11-25T14:31:53.611Z,122.50
2022-11-25T14:34:33.362Z,127.00
2022-11-25T14:37:18.368Z,117.00
2022-11-25T14:40:27.034Z,122.50
2022-11-25T14:46:22.775Z,106.20
2022-11-25T14:48:55.432Z,119.40
2022-11-25T14:51:25.580Z,102.80
2022-11-25T14:53:58.444Z,103.40
2022-11-25T14:56:29.387Z,102.30
2022-11-25T14:58:58.808Z,96.60
2022-11-25T15:01:29.767Z,92.20
2022-11-25T15:04:06.429Z,98.60
2022-11-25T15:06:36.122Z,112.30
2022-11-25T15:09:12.493Z,98.00
2022-11-25T15:11:41.128Z,97.40
2022-11-25T15:14:22.025Z,105.30
2022-11-25T15:16:50.968Z,103.00
2022-11-25T15:19:22.012Z,98.00
2022-11-25T15:22:21.808Z,98.00
2022-11-25T15:24:53.274Z,107.00
2022-11-25T15:27:25.386Z,99.40
2022-11-25T15:29:55.077Z,117.70
2022-11-25T15:32:29.252Z,109.60
2022-11-25T15:35:03.248Z,111.80
2022-11-25T15:37:35.104Z,121.80
2022-11-25T15:40:36.875Z,121.40
2022-11-25T15:43:10.023Z,104.70
2022-11-25T15:45:44.903Z,99.60
2022-11-25T15:48:18.191Z,100.50
2022-11-25T15:50:46.439Z,102.90
2022-11-25T15:53:24.855Z,107.30
2022-11-25T15:56:00.717Z,91.70
2022-11-25T15:58:30.201Z,91.00
2022-11-25T16:01:06.740Z,102.90
2022-11-25T16:03:38.233Z,105.70
2022-11-25T16:06:21.285Z,112.80
2022-11-25T16:08:57.749Z,94.40
2022-11-25T16:11:30.030Z,107.20
2022-11-25T16:14:18.029Z,108.70
2022-11-25T16:16:47.086Z,106.30
2022-11-25T16:19:20.258Z,103.60
2022-11-25T16:21:54.539Z,100.20
2022-11-25T16:24:32.854Z,114.00
2022-11-25T16:27:02.402Z,104.70
2022-11-25T16:29:33.388Z,118.20
2022-11-25T16:32:02.158Z,107.60
2022-11-25T16:34:30.805Z,108.80
2022-11-25T16:36:59.260Z,109.60
2022-11-25T16:39:27.741Z,114.20
2022-11-25T16:41:58.308Z,104.90
2022-11-25T16:44:27.937Z,117.50
2022-11-25T16:46:56.972Z,100.80
2022-11-25T16:49:25.912Z,94.70
2022-11-25T16:51:54.966Z,117.60
2022-11-25T16:54:23.996Z,91.80
2022-11-25T16:56:54.169Z,107.50
2022-11-25T16:59:28.845Z,96.10
2022-11-25T17:01:57.724Z,93.60
2022-11-25T17:04:26.223Z,95.10
2022-11-25T17:07:30.484Z,94.40
2022-11-25T17:09:46.078Z,96.80
2022-11-25T17:12:21.154Z,100.20
2022-11-25T17:14:50.674Z,107.90
2022-11-25T17:17:24.484Z,104.30
2022-11-25T17:19:53.500Z,110.20
2022-11-25T17:22:24.163Z,103.50
2022-11-25T17:24:53.225Z,98.00
2022-11-25T17:27:24.231Z,91.50
2022-11-25T17:29:53.115Z,96.40
2022-11-25T17:32:22.345Z,94.20
2022-11-25T17:34:50.603Z,101.40
2022-11-25T17:37:22.249Z,98.30
2022-11-25T17:39:52.107Z,92.40
2022-11-25T17:42:25.451Z,91.60
2022-11-25T17:44:54.575Z,112.50
2022-11-25T17:47:23.190Z,105.70
2022-11-25T17:49:52.665Z,87.70
2022-11-25T17:52:21.001Z,94.00
2022-11-25T17:54:49.323Z,113.20
2022-11-25T17:57:21.085Z,125.10
2022-11-25T17:59:49.649Z,112.10
2022-11-25T18:02:21.272Z,111.10
2022-11-25T18:04:50.713Z,97.60
2022-11-25T18:07:19.445Z,102.90
2022-11-25T18:09:48.154Z,120.30
2022-11-25T18:12:18.866Z,112.60
2022-11-25T18:14:47.343Z,96.70
2022-11-25T18:17:18.243Z,113.90
2022-11-25T18:19:54.228Z,121.60
2022-11-25T18:22:24.533Z,102.10
2022-11-25T18:24:53.397Z,116.60
2022-11-25T18:27:24.414Z,101.80
2022-11-25T18:29:53.318Z,119.20
2022-11-25T18:32:23.153Z,113.70
2022-11-25T18:34:52.243Z,117.20
2022-11-25T18:37:21.832Z,126.00
2022-11-25T18:39:50.997Z,119.90
2022-11-25T18:42:25.563Z,127.20
2022-11-25T18:44:54.804Z,126.70
2022-11-25T18:47:23.481Z,119.60
2022-11-25T18:49:55.842Z,132.00
2022-11-25T18:52:26.002Z,126.40
2022-11-25T18:54:54.531Z,130.60
2022-11-25T18:57:23.211Z,126.60
2022-11-25T19:00:10.693Z,133.60
2022-11-25T19:02:42.492Z,125.20
2022-11-25T19:05:19.777Z,133.30
2022-11-25T19:07:49.143Z,140.70
2022-11-25T19:10:18.308Z,135.70
2022-11-25T19:12:51.451Z,129.90
2022-11-25T19:15:23.025Z,131.70
2022-11-25T19:17:54.819Z,138.70
2022-11-25T19:20:28.408Z,133.40
2022-11-25T19:23:06.798Z,135.50
2022-11-25T19:25:35.383Z,132.10
2022-11-25T19:28:04.163Z,137.30
2022-11-25T19:30:32.968Z,146.60
2022-11-25T19:33:02.770Z,140.70
2022-11-25T19:35:35.461Z,137.60
2022-11-25T19:38:10.601Z,132.70
2022-11-25T19:40:39.960Z,141.40
2022-11-25T19:43:08.308Z,128.40
2022-11-25T19:45:37.130Z,133.50
2022-11-25T19:48:07.971Z,139.20
2022-11-25T19:50:38.954Z,143.40
2022-11-25T19:53:14.354Z,141.00
2022-11-25T19:55:43.488Z,143.80
2022-11-25T19:58:12.693Z,128.90
2022-11-25T20:00:42.425Z,118.90
2022-11-25T20:03:16.823Z,136.50
2022-11-25T20:05:46.401Z,145.00
2022-11-25T20:08:20.458Z,128.90
2022-11-25T20:13:16.764Z,123.60
2022-11-25T20:15:46.002Z,127.50
2022-11-25T20:18:18.220Z,125.50
2022-11-25T20:20:48.869Z,148.40
2022-11-25T20:23:23.886Z,137.90
2022-11-25T20:25:52.295Z,139.30
2022-11-25T20:28:22.253Z,144.90
2022-11-25T20:30:52.246Z,142.90
2022-11-25T20:33:24.320Z,138.70
2022-11-25T20:35:56.364Z,151.30
2022-11-25T20:38:26.366Z,129.60
2022-11-25T20:40:57.576Z,154.20
2022-11-25T20:43:29.222Z,143.80
2022-11-25T20:45:58.484Z,134.50
2022-11-25T20:48:28.269Z,128.40
2022-11-25T20:50:59.438Z,143.70
2022-11-25T20:53:30.061Z,140.30
2022-11-25T20:55:59.300Z,133.90
2022-11-25T20:58:32.356Z,150.60
2022-11-25T21:01:01.748Z,147.00
2022-11-25T21:03:30.564Z,150.50
2022-11-25T21:05:59.081Z,151.50
2022-11-25T21:08:30.292Z,152.60
2022-11-25T21:10:59.803Z,149.10
2022-11-25T21:13:29.738Z,156.40
2022-11-25T21:15:58.436Z,148.90
2022-11-25T21:18:27.090Z,161.80
2022-11-25T21:20:57.340Z,150.50
2022-11-25T21:23:28.562Z,153.60
2022-11-25T21:26:02.983Z,157.20
2022-11-25T21:28:32.346Z,156.30
2022-11-25T21:31:03.083Z,141.60
2022-11-25T21:33:34.893Z,132.80
2022-11-25T21:36:03.865Z,144.60
2022-11-25T21:38:32.419Z,147.90
2022-11-25T21:41:01.034Z,161.20
2022-11-25T21:43:30.843Z,147.30
2022-11-25T21:46:01.250Z,144.70
2022-11-25T21:48:30.657Z,150.60
2022-11-25T21:51:00.659Z,154.80
2022-11-25T21:53:33.182Z,169.80
2022-11-25T21:56:09.646Z,167.00
2022-11-25T21:58:38.897Z,155.40
2022-11-25T22:01:10.208Z,158.40
2022-11-25T22:03:39.939Z,154.40
2022-11-25T22:06:21.377Z,163.60
2022-11-25T22:08:49.663Z,145.30
2022-11-25T22:11:19.534Z,151.00
2022-11-25T22:13:49.412Z,135.40
2022-11-25T22:16:21.524Z,153.70
2022-11-25T22:18:49.917Z,147.90
2022-11-25T22:21:18.273Z,160.30
2022-11-25T22:23:46.714Z,161.10
2022-11-25T22:26:17.384Z,144.40
2022-11-25T22:28:49.919Z,140.00
2022-11-25T22:31:18.878Z,146.70
2022-11-25T22:33:47.977Z,140.60
2022-11-25T22:36:31.810Z,146.40
2022-11-25T22:39:08.731Z,161.80
2022-11-25T22:41:37.195Z,134.10
2022-11-25T22:44:05.858Z,158.40
2022-11-25T22:46:36.708Z,149.80
2022-11-25T22:49:05.228Z,152.70
2022-11-25T22:51:33.611Z,159.00
2022-11-25T22:54:02.187Z,170.20
2022-11-25T22:56:30.759Z,142.90
2022-11-25T22:59:00.519Z,136.70
2022-11-25T23:01:29.583Z,154.00
2022-11-25T23:03:58.362Z,154.10
2022-11-25T23:06:28.034Z,148.40
2022-11-25T23:08:56.344Z,164.60
2022-11-25T23:11:24.931Z,162.50
2022-11-25T23:13:53.650Z,158.80
2022-11-25T23:16:22.013Z,164.50
2022-11-25T23:18:50.576Z,172.60
2022-11-25T23:21:20.265Z,154.60
2022-11-25T23:23:48.605Z,173.40
2022-11-25T23:26:17.841Z,165.30
2022-11-25T23:28:46.144Z,160.20
2022-11-25T23:31:15.898Z,186.40
2022-11-25T23:33:45.914Z,162.40
2022-11-25T23:36:17.867Z,159.00
2022-11-25T23:38:49.802Z,165.50
2022-11-25T23:41:20.543Z,176.40
2022-11-25T23:43:49.100Z,176.40
2022-11-25T23:46:23.948Z,172.20
2022-11-25T23:48:56.240Z,181.00
2022-11-25T23:51:25.473Z,186.30
2022-11-25T23:53:55.500Z,167.50
2022-11-25T23:56:24.120Z,168.50
2022-11-25T23:58:52.476Z,174.20
